createdAt,value
2019-05-01T00:02:08.634Z,42.80
2019-05-01T00:04:54.959Z,45.60
2019-05-01T00:07:29.489Z,49.07
2019-05-01T00:09:57.878Z,43.93
2019-05-01T00:12:26.594Z,47.37
2019-05-01T00:14:55.158Z,50.27
2019-05-01T00:17:24.032Z,44.17
2019-05-01T00:19:52.498Z,45.83
2019-05-01T00:22:20.976Z,48.30
2019-05-01T00:24:49.363Z,54.30
2019-05-01T00:27:17.814Z,47.60
2019-05-01T00:29:46.309Z,49.53
2019-05-01T00:32:14.810Z,48.33
2019-05-01T00:34:43.258Z,48.00
2019-05-01T00:37:11.647Z,47.47
2019-05-01T00:39:40.078Z,45.70
2019-05-01T00:42:08.443Z,46.37
2019-05-01T00:44:37.159Z,48.13
2019-05-01T00:47:05.742Z,50.27
2019-05-01T00:49:34.239Z,52.43
2019-05-01T00:52:02.714Z,47.90
2019-05-01T00:54:32.815Z,48.23
2019-05-01T00:57:14.690Z,48.93
2019-05-01T00:59:51.790Z,53.00
2019-05-01T01:02:28.157Z,54.53
2019-05-01T01:04:56.524Z,53.23
2019-05-01T01:07:24.955Z,51.73
2019-05-01T01:09:53.402Z,53.37
2019-05-01T01:12:21.962Z,57.03
2019-05-01T01:14:50.490Z,53.63
2019-05-01T01:17:18.972Z,53.80
2019-05-01T01:19:47.411Z,59.50
2019-05-01T01:22:15.928Z,53.17
2019-05-01T01:24:44.507Z,53.30
2019-05-01T01:27:12.964Z,54.07
2019-05-01T01:29:41.426Z,53.80
2019-05-01T01:32:09.863Z,52.93
2019-05-01T01:34:38.304Z,52.37
2019-05-01T01:37:06.742Z,55.97
2019-05-01T01:39:35.194Z,54.30
2019-05-01T01:42:03.730Z,59.07
2019-05-01T01:44:51.058Z,52.67
2019-05-01T01:47:19.498Z,52.63
2019-05-01T01:49:47.941Z,54.53
2019-05-01T01:52:16.511Z,55.10
2019-05-01T01:54:44.948Z,56.57
2019-05-01T01:57:13.375Z,56.63
2019-05-01T01:59:41.996Z,56.30
2019-05-01T02:02:21.599Z,59.43
2019-05-01T02:05:21.670Z,62.97
2019-05-01T02:07:50.210Z,56.47
2019-05-01T02:10:18.791Z,55.00
2019-05-01T02:12:47.266Z,59.10
2019-05-01T02:15:15.815Z,61.57
2019-05-01T02:17:44.284Z,62.03
2019-05-01T02:20:12.738Z,59.80
2019-05-01T02:22:41.271Z,57.30
2019-05-01T02:25:11.095Z,61.40
2019-05-01T02:27:48.327Z,58.17
2019-05-01T02:30:18.172Z,56.60
2019-05-01T02:32:47.197Z,56.47
2019-05-01T02:35:15.788Z,55.73
2019-05-01T02:37:46.043Z,54.87
2019-05-01T02:40:32.190Z,59.70
2019-05-01T02:43:01.658Z,60.50
2019-05-01T02:45:30.105Z,60.97
2019-05-01T02:48:00.003Z,62.30
2019-05-01T02:50:29.855Z,66.07
2019-05-01T02:52:58.334Z,57.20
2019-05-01T02:55:32.735Z,63.30
2019-05-01T02:58:01.176Z,65.03
2019-05-01T03:00:29.624Z,63.33
2019-05-01T03:02:58.504Z,61.70
2019-05-01T03:05:26.951Z,70.03
2019-05-01T03:07:55.381Z,61.57
2019-05-01T03:10:23.931Z,66.73
2019-05-01T03:12:52.425Z,63.93
2019-05-01T03:15:22.287Z,79.60
2019-05-01T03:18:16.272Z,77.43
2019-05-01T03:21:05.717Z,77.57
2019-05-01T03:23:37.539Z,91.07
2019-05-01T03:26:05.951Z,95.83
2019-05-01T03:28:34.395Z,95.87
2019-05-01T03:31:02.850Z,96.70
2019-05-01T03:33:31.280Z,112.90
2019-05-01T03:35:59.744Z,128.30
2019-05-01T03:38:29.439Z,83.83
2019-05-01T03:40:57.923Z,92.80
2019-05-01T03:43:26.422Z,137.07
2019-05-01T03:45:55.493Z,128.43
2019-05-01T03:48:24.083Z,191.73
2019-05-01T03:50:52.644Z,119.33
2019-05-01T03:53:21.216Z,128.60
2019-05-01T03:55:49.641Z,97.30
2019-05-01T03:58:18.551Z,97.33
2019-05-01T04:01:12.064Z,102.97
2019-05-01T04:03:46.742Z,113.23
2019-05-01T04:06:15.316Z,118.90
2019-05-01T04:08:45.867Z,96.37
2019-05-01T04:11:14.388Z,120.73
2019-05-01T04:13:42.851Z,90.03
2019-05-01T04:16:11.256Z,102.87
2019-05-01T04:18:39.763Z,95.37
2019-05-01T04:21:08.858Z,100.17
2019-05-01T04:23:37.599Z,95.03
2019-05-01T04:26:07.096Z,111.20
2019-05-01T04:28:48.534Z,113.03
2019-05-01T04:31:24.884Z,114.63
2019-05-01T04:33:54.788Z,104.20
2019-05-01T04:36:28.505Z,103.97
2019-05-01T04:38:57.253Z,108.00
2019-05-01T04:41:26.479Z,95.97
2019-05-01T04:43:54.931Z,106.93
2019-05-01T04:46:23.512Z,128.13
2019-05-01T04:48:52.160Z,100.03
2019-05-01T04:51:20.694Z,110.07
2019-05-01T04:53:50.049Z,108.03
2019-05-01T04:56:18.687Z,110.50
2019-05-01T04:58:47.138Z,102.17
2019-05-01T05:01:15.615Z,97.67
2019-05-01T05:03:45.705Z,94.20
2019-05-01T05:06:14.674Z,92.50
2019-05-01T05:08:43.151Z,90.60
2019-05-01T05:11:16.842Z,90.10
2019-05-01T05:14:04.452Z,96.23
2019-05-01T05:16:57.711Z,87.20
2019-05-01T05:19:26.163Z,84.50
2019-05-01T05:21:54.707Z,91.30
2019-05-01T05:24:23.254Z,78.90
2019-05-01T05:26:52.131Z,90.00
2019-05-01T05:29:20.679Z,81.27
2019-05-01T05:31:50.420Z,80.03
2019-05-01T05:34:19.862Z,75.50
2019-05-01T05:36:49.222Z,93.40
2019-05-01T05:39:26.661Z,79.83
2019-05-01T05:41:55.413Z,74.27
2019-05-01T05:44:23.968Z,78.53
2019-05-01T05:46:52.643Z,77.07
2019-05-01T05:49:21.082Z,82.03
2019-05-01T05:52:08.838Z,80.33
2019-05-01T05:54:55.934Z,68.23
2019-05-01T05:57:31.982Z,74.97
2019-05-01T06:00:11.562Z,74.07
2019-05-01T06:02:56.798Z,67.20
2019-05-01T06:05:34.720Z,73.83
2019-05-01T06:08:17.510Z,67.43
2019-05-01T06:10:58.558Z,69.70
2019-05-01T06:13:45.058Z,72.83
2019-05-01T06:16:40.464Z,72.57
2019-05-01T06:19:37.570Z,76.47
2019-05-01T06:22:33.987Z,73.17
2019-05-01T06:25:06.924Z,71.40
2019-05-01T06:27:35.472Z,72.27
2019-05-01T06:30:06.502Z,65.87
2019-05-01T06:32:35.666Z,70.60
2019-05-01T06:35:04.636Z,65.60
2019-05-01T06:37:40.607Z,70.97
2019-05-01T06:40:11.017Z,67.97
2019-05-01T06:42:39.415Z,73.73
2019-05-01T06:45:13.045Z,77.57
2019-05-01T06:48:03.772Z,70.43
2019-05-01T06:50:51.365Z,72.53
2019-05-01T06:53:20.162Z,74.87
2019-05-01T06:55:51.357Z,70.03
2019-05-01T06:58:20.479Z,83.87
2019-05-01T07:00:49.031Z,76.63
2019-05-01T07:03:17.594Z,81.07
2019-05-01T07:05:49.185Z,74.30
2019-05-01T07:08:24.336Z,77.23
2019-05-01T07:10:46.673Z,75.27
2019-05-01T07:13:15.144Z,66.67
2019-05-01T07:15:43.584Z,61.90
2019-05-01T07:18:12.040Z,60.20
2019-05-01T07:20:53.505Z,63.47
2019-05-01T07:23:22.364Z,62.83
2019-05-01T07:25:50.908Z,66.17
2019-05-01T07:28:19.805Z,63.23
2019-05-01T07:30:54.790Z,64.97
2019-05-01T07:33:21.385Z,59.73
2019-05-01T07:35:50.234Z,62.40
2019-05-01T07:38:18.782Z,58.80
2019-05-01T07:40:47.438Z,61.17
2019-05-01T07:43:23.906Z,64.53
2019-05-01T07:46:18.337Z,65.77
2019-05-01T07:48:46.310Z,58.00
2019-05-01T07:51:15.439Z,65.10
2019-05-01T07:53:44.082Z,61.57
2019-05-01T07:56:12.531Z,64.07
2019-05-01T07:58:40.990Z,58.93
2019-05-01T08:01:20.131Z,57.07
2019-05-01T08:03:48.672Z,57.53
2019-05-01T08:06:21.857Z,57.37
2019-05-01T08:08:48.367Z,59.37
2019-05-01T08:11:16.819Z,56.87
2019-05-01T08:13:45.288Z,54.20
2019-05-01T08:16:13.766Z,54.23
2019-05-01T08:18:50.575Z,55.10
2019-05-01T08:21:40.982Z,62.03
2019-05-01T08:24:09.851Z,51.90
2019-05-01T08:26:39.614Z,54.30
2019-05-01T08:29:27.914Z,60.70
2019-05-01T08:32:04.654Z,53.47
2019-05-01T08:34:33.547Z,54.70
2019-05-01T08:37:02.051Z,61.63
2019-05-01T08:39:30.601Z,50.57
2019-05-01T08:42:02.940Z,57.37
2019-05-01T08:44:32.955Z,62.20
2019-05-01T08:47:25.207Z,51.90
2019-05-01T08:50:02.059Z,58.33
2019-05-01T08:52:30.594Z,56.67
2019-05-01T08:54:59.016Z,60.57
2019-05-01T08:57:29.090Z,57.47
2019-05-01T09:00:00.336Z,57.27
2019-05-01T09:02:27.949Z,52.40
2019-05-01T09:05:02.593Z,59.23
2019-05-01T09:07:26.921Z,57.40
2019-05-01T09:09:55.683Z,55.33
2019-05-01T09:12:24.395Z,56.63
2019-05-01T09:14:53.547Z,59.20
2019-05-01T09:17:22.094Z,58.17
2019-05-01T09:19:50.814Z,64.80
2019-05-01T09:22:19.381Z,55.83
2019-05-01T09:24:48.579Z,55.73
2019-05-01T09:27:51.256Z,50.50
2019-05-01T09:30:28.791Z,58.87
2019-05-01T09:32:57.479Z,52.80
2019-05-01T09:35:26.023Z,55.07
2019-05-01T09:37:54.504Z,51.30
2019-05-01T09:40:23.127Z,55.57
2019-05-01T09:42:54.729Z,53.83
2019-05-01T09:45:21.985Z,54.47
2019-05-01T09:47:50.559Z,56.17
2019-05-01T09:50:19.036Z,56.07
2019-05-01T09:53:07.585Z,56.30
2019-05-01T09:56:03.189Z,59.70
2019-05-01T09:58:31.679Z,57.90
2019-05-01T10:01:00.664Z,55.23
2019-05-01T10:03:29.291Z,55.27
2019-05-01T10:05:57.827Z,57.53
2019-05-01T10:08:26.366Z,55.97
2019-05-01T10:10:54.843Z,54.30
2019-05-01T10:13:24.138Z,52.77
2019-05-01T10:15:52.691Z,50.00
2019-05-01T10:18:21.182Z,54.67
2019-05-01T10:20:49.715Z,46.97
2019-05-01T10:23:18.257Z,48.63
2019-05-01T10:25:50.642Z,50.17
2019-05-01T10:28:29.063Z,51.80
2019-05-01T10:31:28.708Z,50.53
2019-05-01T10:34:02.964Z,51.93
2019-05-01T10:36:44.022Z,50.23
2019-05-01T10:39:16.089Z,58.63
2019-05-01T10:41:46.259Z,54.07
2019-05-01T10:44:12.999Z,54.70
2019-05-01T10:46:41.466Z,54.73
2019-05-01T10:49:09.916Z,51.67
2019-05-01T10:51:38.506Z,54.00
2019-05-01T10:54:07.023Z,51.70
2019-05-01T10:56:35.470Z,57.53
2019-05-01T10:59:03.951Z,57.00
2019-05-01T11:01:46.490Z,53.23
2019-05-01T11:04:14.904Z,47.23
2019-05-01T11:06:44.324Z,52.27
2019-05-01T11:09:13.076Z,54.23
2019-05-01T11:11:41.436Z,53.80
2019-05-01T11:14:09.882Z,46.67
2019-05-01T11:16:39.328Z,49.90
2019-05-01T11:19:30.200Z,47.87
2019-05-01T11:21:58.734Z,50.23
2019-05-01T11:24:27.190Z,52.50
2019-05-01T11:26:55.692Z,51.80
2019-05-01T11:29:24.176Z,51.37
2019-05-01T11:32:09.877Z,50.30
2019-05-01T11:34:50.836Z,49.63
2019-05-01T11:37:37.379Z,47.07
2019-05-01T11:40:17.779Z,55.10
2019-05-01T11:42:46.250Z,55.80
2019-05-01T11:45:14.892Z,61.70
2019-05-01T11:47:43.292Z,54.37
2019-05-01T11:50:11.785Z,59.77
2019-05-01T11:52:40.189Z,65.37
2019-05-01T11:55:08.965Z,58.37
2019-05-01T11:57:37.513Z,60.07
2019-05-01T12:00:06.610Z,59.83
2019-05-01T12:02:35.104Z,58.83
2019-05-01T12:05:03.661Z,59.20
2019-05-01T12:07:32.124Z,56.43
2019-05-01T12:10:00.604Z,50.87
2019-05-01T12:12:30.661Z,58.93
2019-05-01T12:14:59.133Z,60.30
2019-05-01T12:17:38.833Z,55.30
2019-05-01T12:20:06.616Z,54.83
2019-05-01T12:22:35.116Z,49.63
2019-05-01T12:25:03.608Z,58.57
2019-05-01T12:27:32.097Z,55.47
2019-05-01T12:30:00.594Z,51.57
2019-05-01T12:32:29.045Z,56.10
2019-05-01T12:34:57.465Z,51.70
2019-05-01T12:37:33.857Z,50.70
2019-05-01T12:40:02.348Z,53.67
2019-05-01T12:42:31.482Z,52.70
2019-05-01T12:44:59.947Z,52.17
2019-05-01T12:47:34.912Z,54.23
2019-05-01T12:50:03.435Z,53.73
2019-05-01T12:52:43.000Z,48.70
2019-05-01T12:56:06.081Z,51.93
2019-05-01T12:58:35.832Z,54.03
2019-05-01T13:01:04.356Z,59.23
2019-05-01T13:03:32.900Z,57.20
2019-05-01T13:06:01.428Z,54.53
2019-05-01T13:08:29.910Z,50.17
2019-05-01T13:10:59.692Z,51.00
2019-05-01T13:13:28.210Z,51.97
2019-05-01T13:15:56.743Z,52.63
2019-05-01T13:18:25.232Z,54.23
2019-05-01T13:20:53.716Z,50.30
2019-05-01T13:23:22.295Z,55.80
2019-05-01T13:25:51.384Z,54.50
2019-05-01T13:28:57.184Z,53.93
2019-05-01T13:31:34.537Z,55.73
2019-05-01T13:34:03.078Z,52.07
2019-05-01T13:36:31.556Z,57.40
2019-05-01T13:39:00.044Z,55.67
2019-05-01T13:41:28.600Z,56.07
2019-05-01T13:43:57.079Z,57.10
2019-05-01T13:46:25.546Z,57.70
2019-05-01T13:48:54.131Z,58.10
2019-05-01T13:51:22.546Z,59.40
2019-05-01T13:53:51.100Z,62.53
2019-05-01T13:56:19.580Z,64.40
2019-05-01T13:58:48.076Z,61.17
2019-05-01T14:01:16.942Z,63.87
2019-05-01T14:03:45.440Z,64.23
2019-05-01T14:06:13.980Z,66.23
2019-05-01T14:08:42.528Z,66.90
2019-05-01T14:11:11.131Z,70.90
2019-05-01T14:13:39.704Z,68.83
2019-05-01T14:16:08.213Z,66.60
2019-05-01T14:18:36.697Z,66.17
2019-05-01T14:21:11.877Z,72.20
2019-05-01T14:23:58.106Z,68.43
2019-05-01T14:26:26.508Z,69.77
2019-05-01T14:28:54.900Z,66.67
2019-05-01T14:31:23.436Z,66.27
2019-05-01T14:33:51.932Z,68.93
2019-05-01T14:36:20.329Z,60.83
2019-05-01T14:38:48.728Z,61.83
2019-05-01T14:41:17.224Z,61.30
2019-05-01T14:43:45.607Z,60.77
2019-05-01T14:46:14.068Z,60.60
2019-05-01T14:48:42.594Z,62.33
2019-05-01T14:51:11.487Z,63.23
2019-05-01T14:53:39.993Z,61.43
2019-05-01T14:56:08.612Z,58.17
2019-05-01T14:58:37.205Z,60.93
2019-05-01T15:01:05.784Z,62.43
2019-05-01T15:03:34.287Z,61.23
2019-05-01T15:06:02.864Z,67.37
2019-05-01T15:08:31.368Z,60.07
2019-05-01T15:10:59.841Z,59.50
2019-05-01T15:13:43.329Z,61.27
2019-05-01T15:16:25.235Z,58.03
2019-05-01T15:19:05.315Z,56.33
2019-05-01T15:21:33.859Z,55.87
2019-05-01T15:24:02.332Z,53.37
2019-05-01T15:26:30.801Z,54.43
2019-05-01T15:28:59.361Z,54.73
2019-05-01T15:31:27.796Z,54.53
2019-05-01T15:33:56.202Z,53.70
2019-05-01T15:36:24.786Z,52.93
2019-05-01T15:38:53.302Z,50.57
2019-05-01T15:41:39.901Z,50.50
2019-05-01T15:44:17.465Z,49.53
2019-05-01T15:46:46.031Z,49.60
2019-05-01T15:49:14.534Z,52.00
2019-05-01T15:51:43.186Z,52.63
2019-05-01T15:54:11.602Z,50.07
2019-05-01T15:56:40.208Z,50.23
2019-05-01T15:59:08.583Z,48.50
2019-05-01T16:01:37.179Z,51.47
2019-05-01T16:04:06.043Z,50.93
2019-05-01T16:06:34.428Z,50.03
2019-05-01T16:09:03.008Z,57.90
2019-05-01T16:11:56.698Z,53.27
2019-05-01T16:14:25.230Z,50.47
2019-05-01T16:16:53.775Z,55.00
2019-05-01T16:19:22.264Z,54.97
2019-05-01T16:21:50.786Z,55.03
2019-05-01T16:24:19.280Z,55.23
2019-05-01T16:26:47.767Z,61.27
2019-05-01T16:29:16.243Z,55.40
2019-05-01T16:31:44.772Z,62.10
2019-05-01T16:34:13.164Z,58.83
2019-05-01T16:36:41.670Z,55.07
2019-05-01T16:39:44.355Z,57.13
2019-05-01T16:42:12.919Z,55.50
2019-05-01T16:44:41.471Z,56.10
2019-05-01T16:47:09.985Z,53.70
2019-05-01T16:49:38.398Z,55.87
2019-05-01T16:52:07.148Z,50.07
2019-05-01T16:54:35.635Z,52.17
2019-05-01T16:57:06.436Z,48.67
2019-05-01T16:59:34.840Z,50.70
2019-05-01T17:02:21.145Z,46.83
2019-05-01T17:05:05.091Z,53.27
2019-05-01T17:07:50.979Z,53.77
2019-05-01T17:10:26.516Z,53.23
2019-05-01T17:12:55.241Z,51.13
2019-05-01T17:15:35.211Z,50.83
2019-05-01T17:18:03.898Z,49.73
2019-05-01T17:20:32.397Z,50.13
2019-05-01T17:23:00.934Z,51.80
2019-05-01T17:25:29.680Z,51.97
2019-05-01T17:27:58.288Z,49.07
2019-05-01T17:30:40.072Z,50.03
2019-05-01T17:33:08.547Z,52.63
2019-05-01T17:35:41.396Z,50.67
2019-05-01T17:38:07.247Z,47.37
2019-05-01T17:40:35.728Z,47.47
2019-05-01T17:43:08.117Z,51.03
2019-05-01T17:45:36.537Z,50.07
2019-05-01T17:48:05.168Z,51.07
2019-05-01T17:50:33.663Z,48.30
2019-05-01T17:53:02.235Z,50.10
2019-05-01T17:55:30.747Z,50.93
2019-05-01T17:57:59.336Z,50.33
2019-05-01T18:00:42.778Z,54.70
2019-05-01T18:03:30.473Z,52.90
2019-05-01T18:06:24.268Z,47.83
2019-05-01T18:09:02.885Z,55.27
2019-05-01T18:11:23.023Z,55.13
2019-05-01T18:13:51.547Z,54.80
2019-05-01T18:16:20.074Z,51.93
2019-05-01T18:18:48.645Z,55.13
2019-05-01T18:21:17.471Z,53.93
2019-05-01T18:24:04.318Z,54.77
2019-05-01T18:26:52.195Z,55.57
2019-05-01T18:29:27.795Z,56.83
2019-05-01T18:31:56.666Z,54.87
2019-05-01T18:34:25.235Z,55.77
2019-05-01T18:37:01.580Z,55.33
2019-05-01T18:39:34.393Z,52.53
2019-05-01T18:42:04.827Z,56.63
2019-05-01T18:44:36.757Z,57.37
2019-05-01T18:47:05.633Z,60.90
2019-05-01T18:49:34.219Z,59.83
2019-05-01T18:52:02.656Z,59.73
2019-05-01T18:54:35.032Z,58.47
2019-05-01T18:57:01.463Z,59.70
2019-05-01T18:59:29.940Z,55.87
2019-05-01T19:02:01.195Z,59.07
2019-05-01T19:04:28.685Z,58.67
2019-05-01T19:06:57.190Z,56.63
2019-05-01T19:09:30.318Z,58.70
2019-05-01T19:12:02.275Z,58.80
2019-05-01T19:14:30.931Z,58.40
2019-05-01T19:16:59.469Z,60.83
2019-05-01T19:19:28.005Z,57.83
2019-05-01T19:21:56.531Z,60.00
2019-05-01T19:24:25.534Z,60.70
2019-05-01T19:26:54.181Z,66.00
2019-05-01T19:29:26.707Z,62.23
2019-05-01T19:31:52.979Z,66.27
2019-05-01T19:34:21.522Z,61.47
2019-05-01T19:36:51.613Z,65.77
2019-05-01T19:39:20.380Z,62.50
2019-05-01T19:41:50.943Z,62.20
2019-05-01T19:44:20.210Z,64.27
2019-05-01T19:46:48.812Z,59.93
2019-05-01T19:49:17.355Z,64.57
2019-05-01T19:51:45.909Z,63.30
2019-05-01T19:54:14.371Z,61.13
2019-05-01T19:56:42.995Z,66.63
2019-05-01T19:59:11.510Z,67.63
2019-05-01T20:01:44.452Z,68.03
2019-05-01T20:04:13.212Z,66.70
2019-05-01T20:06:41.164Z,68.37
2019-05-01T20:09:09.731Z,69.57
2019-05-01T20:11:56.795Z,71.30
2019-05-01T20:14:25.279Z,69.47
2019-05-01T20:16:54.644Z,70.77
2019-05-01T20:19:23.845Z,70.87
2019-05-01T20:21:52.482Z,74.07
2019-05-01T20:24:21.453Z,74.53
2019-05-01T20:26:50.151Z,73.87
2019-05-01T20:29:18.819Z,69.90
2019-05-01T20:31:50.679Z,69.90
2019-05-01T20:34:18.781Z,71.10
2019-05-01T20:36:47.304Z,70.47
2019-05-01T20:39:15.839Z,73.10
2019-05-01T20:41:44.411Z,68.83
2019-05-01T20:44:13.999Z,71.77
2019-05-01T20:46:43.142Z,75.97
2019-05-01T20:49:12.147Z,81.77
2019-05-01T20:51:40.833Z,82.83
2019-05-01T20:54:09.510Z,82.23
2019-05-01T20:56:43.773Z,82.90
2019-05-01T20:59:12.320Z,81.50
2019-05-01T21:01:40.956Z,84.60
2019-05-01T21:04:22.506Z,79.57
2019-05-01T21:07:19.727Z,75.90
2019-05-01T21:09:48.213Z,78.83
2019-05-01T21:12:17.406Z,76.00
2019-05-01T21:14:49.519Z,80.40
2019-05-01T21:17:16.283Z,80.83
2019-05-01T21:19:44.710Z,76.03
2019-05-01T21:22:14.237Z,89.03
2019-05-01T21:24:44.366Z,90.70
2019-05-01T21:27:13.407Z,82.03
2019-05-01T21:29:41.943Z,81.80
2019-05-01T21:32:10.539Z,87.67
2019-05-01T21:34:43.518Z,84.20
2019-05-01T21:37:12.349Z,89.03
2019-05-01T21:39:40.730Z,81.93
2019-05-01T21:42:11.566Z,81.07
2019-05-01T21:44:39.522Z,78.03
2019-05-01T21:47:18.415Z,76.03
2019-05-01T21:49:47.078Z,74.23
2019-05-01T21:52:18.012Z,66.23
2019-05-01T21:54:50.041Z,69.70
2019-05-01T21:57:17.267Z,74.40
2019-05-01T21:59:48.138Z,72.30
2019-05-01T22:02:23.216Z,74.90
2019-05-01T22:04:51.884Z,73.77
2019-05-01T22:07:23.890Z,75.13
2019-05-01T22:09:51.710Z,77.60
2019-05-01T22:12:20.376Z,71.73
2019-05-01T22:14:53.575Z,76.40
2019-05-01T22:17:39.774Z,73.73
2019-05-01T22:20:09.407Z,76.50
2019-05-01T22:22:46.453Z,72.37
2019-05-01T22:25:34.289Z,77.73
2019-05-01T22:28:13.909Z,80.97
2019-05-01T22:30:52.603Z,78.67
2019-05-01T22:33:21.372Z,77.97
2019-05-01T22:35:51.776Z,81.07
2019-05-01T22:38:20.589Z,77.77
2019-05-01T22:41:05.403Z,76.77
2019-05-01T22:43:25.226Z,81.63
2019-05-01T22:45:56.310Z,77.73
2019-05-01T22:48:24.062Z,75.77
2019-05-01T22:50:55.542Z,81.07
2019-05-01T22:53:24.291Z,78.43
2019-05-01T22:55:57.204Z,76.30
2019-05-01T22:58:23.050Z,76.20
2019-05-01T23:00:53.800Z,79.03
2019-05-01T23:03:26.548Z,76.17
2019-05-01T23:05:55.114Z,74.53
2019-05-01T23:08:23.633Z,76.33
2019-05-01T23:10:56.202Z,77.63
2019-05-01T23:13:24.682Z,75.90
2019-05-01T23:15:56.345Z,78.43
2019-05-01T23:18:23.483Z,79.23
2019-05-01T23:20:51.975Z,87.30
2019-05-01T23:23:23.572Z,80.57
2019-05-01T23:25:52.107Z,76.67
2019-05-01T23:28:20.655Z,75.20
2019-05-01T23:31:08.346Z,74.40
2019-05-01T23:33:36.896Z,74.30
2019-05-01T23:36:05.382Z,67.67
2019-05-01T23:38:33.773Z,72.20
2019-05-01T23:41:02.239Z,72.50
2019-05-01T23:43:30.702Z,79.57
2019-05-01T23:45:59.186Z,74.30
2019-05-01T23:48:27.583Z,78.80
2019-05-01T23:50:55.954Z,71.20
2019-05-01T23:53:24.422Z,75.63
2019-05-01T23:55:54.716Z,74.97
2019-05-01T23:58:23.059Z,73.70
